sensor_id;sensor_type;location;lat;lon;timestamp;pressure;altitude;pressure_sealevel;temperature;humidity
8294;BME280;4185;41.506;24.938;2023-10-31T00:02:07;93892.78;;;10.70;84.16
8294;BME280;4185;41.506;24.938;2023-10-31T00:04:34;93893.84;;;10.78;83.91
8294;BME280;4185;41.506;24.938;2023-10-31T00:07:02;93885.50;;;10.81;82.87
8294;BME280;4185;41.506;24.938;2023-10-31T00:09:29;93877.75;;;10.74;84.12
8294;BME280;4185;41.506;24.938;2023-10-31T00:11:56;93880.19;;;10.72;84.78
8294;BME280;4185;41.506;24.938;2023-10-31T00:14:23;93866.81;;;10.69;85.73
8294;BME280;4185;41.506;24.938;2023-10-31T00:16:50;93874.97;;;10.69;85.42
8294;BME280;4185;41.506;24.938;2023-10-31T00:19:16;93871.44;;;10.63;85.26
8294;BME280;4185;41.506;24.938;2023-10-31T00:21:43;93876.53;;;10.55;85.97
8294;BME280;4185;41.506;24.938;2023-10-31T00:24:11;93870.84;;;10.53;85.69
8294;BME280;4185;41.506;24.938;2023-10-31T00:26:38;93872.63;;;10.56;85.16
8294;BME280;4185;41.506;24.938;2023-10-31T00:29:05;93865.91;;;10.52;85.31
8294;BME280;4185;41.506;24.938;2023-10-31T00:31:32;93863.63;;;10.50;85.70
8294;BME280;4185;41.506;24.938;2023-10-31T00:34:00;93864.41;;;10.51;86.17
8294;BME280;4185;41.506;24.938;2023-10-31T00:36:27;93862.16;;;10.49;86.21
8294;BME280;4185;41.506;24.938;2023-10-31T00:38:53;93868.34;;;10.50;86.95
8294;BME280;4185;41.506;24.938;2023-10-31T00:41:22;93863.88;;;10.47;88.46
8294;BME280;4185;41.506;24.938;2023-10-31T00:43:48;93860.47;;;10.52;88.71
8294;BME280;4185;41.506;24.938;2023-10-31T00:46:15;93858.00;;;10.54;89.38
8294;BME280;4185;41.506;24.938;2023-10-31T00:48:42;93850.88;;;10.56;89.46
8294;BME280;4185;41.506;24.938;2023-10-31T00:51:09;93851.88;;;10.59;90.48
8294;BME280;4185;41.506;24.938;2023-10-31T00:53:35;93846.22;;;10.57;90.38
8294;BME280;4185;41.506;24.938;2023-10-31T00:56:03;93851.09;;;10.53;90.85
8294;BME280;4185;41.506;24.938;2023-10-31T00:58:31;93847.56;;;10.47;91.23
8294;BME280;4185;41.506;24.938;2023-10-31T01:00:58;93846.81;;;10.46;90.50
8294;BME280;4185;41.506;24.938;2023-10-31T01:03:25;93845.78;;;10.44;90.81
8294;BME280;4185;41.506;24.938;2023-10-31T01:05:52;93847.78;;;10.43;92.43
8294;BME280;4185;41.506;24.938;2023-10-31T01:08:18;93850.50;;;10.43;92.64
8294;BME280;4185;41.506;24.938;2023-10-31T01:10:45;93849.94;;;10.39;92.51
8294;BME280;4185;41.506;24.938;2023-10-31T01:13:12;93849.19;;;10.39;93.12
8294;BME280;4185;41.506;24.938;2023-10-31T01:15:40;93846.47;;;10.39;93.35
8294;BME280;4185;41.506;24.938;2023-10-31T01:18:07;93843.47;;;10.37;93.31
8294;BME280;4185;41.506;24.938;2023-10-31T01:20:34;93836.56;;;10.36;94.15
8294;BME280;4185;41.506;24.938;2023-10-31T01:23:01;93837.66;;;10.44;94.73
8294;BME280;4185;41.506;24.938;2023-10-31T01:25:27;93840.84;;;10.42;93.79
8294;BME280;4185;41.506;24.938;2023-10-31T01:27:54;93835.09;;;10.35;93.91
8294;BME280;4185;41.506;24.938;2023-10-31T01:30:21;93838.13;;;10.42;93.63
8294;BME280;4185;41.506;24.938;2023-10-31T01:32:49;93841.59;;;10.43;94.47
8294;BME280;4185;41.506;24.938;2023-10-31T01:35:16;93828.69;;;10.38;95.61
8294;BME280;4185;41.506;24.938;2023-10-31T01:37:43;93838.31;;;10.39;95.47
8294;BME280;4185;41.506;24.938;2023-10-31T01:40:12;93833.16;;;10.41;95.97
8294;BME280;4185;41.506;24.938;2023-10-31T01:42:39;93839.06;;;10.39;95.72
8294;BME280;4185;41.506;24.938;2023-10-31T01:45:07;93847.41;;;10.36;95.69
8294;BME280;4185;41.506;24.938;2023-10-31T01:47:34;93841.44;;;10.32;96.09
8294;BME280;4185;41.506;24.938;2023-10-31T01:50:03;93837.53;;;10.33;96.96
8294;BME280;4185;41.506;24.938;2023-10-31T01:52:30;93838.28;;;10.33;97.47
8294;BME280;4185;41.506;24.938;2023-10-31T01:54:58;93833.97;;;10.27;98.08
8294;BME280;4185;41.506;24.938;2023-10-31T01:57:25;93838.69;;;10.26;98.98
8294;BME280;4185;41.506;24.938;2023-10-31T01:59:52;93833.97;;;10.27;99.12
8294;BME280;4185;41.506;24.938;2023-10-31T02:02:21;93838.19;;;10.28;100.00
8294;BME280;4185;41.506;24.938;2023-10-31T02:04:49;93835.69;;;10.24;99.94
8294;BME280;4185;41.506;24.938;2023-10-31T02:07:17;93835.41;;;10.22;100.00
8294;BME280;4185;41.506;24.938;2023-10-31T02:09:44;93827.47;;;10.19;100.00
8294;BME280;4185;41.506;24.938;2023-10-31T02:12:11;93835.53;;;10.13;100.00
8294;BME280;4185;41.506;24.938;2023-10-31T02:14:38;93838.53;;;10.15;100.00
8294;BME280;4185;41.506;24.938;2023-10-31T02:17:04;93828.13;;;10.14;100.00
8294;BME280;4185;41.506;24.938;2023-10-31T02:19:31;93831.53;;;10.09;100.00
8294;BME280;4185;41.506;24.938;2023-10-31T02:21:59;93836.97;;;10.09;100.00
8294;BME280;4185;41.506;24.938;2023-10-31T02:24:26;93829.56;;;10.09;100.00
8294;BME280;4185;41.506;24.938;2023-10-31T02:26:53;93832.72;;;10.08;100.00
8294;BME280;4185;41.506;24.938;2023-10-31T02:29:20;93833.50;;;10.08;100.00
8294;BME280;4185;41.506;24.938;2023-10-31T02:31:47;93825.06;;;10.06;100.00
8294;BME280;4185;41.506;24.938;2023-10-31T02:34:14;93827.59;;;10.10;100.00
8294;BME280;4185;41.506;24.938;2023-10-31T02:36:40;93831.63;;;10.14;100.00
8294;BME280;4185;41.506;24.938;2023-10-31T02:39:09;93823.94;;;10.13;100.00
8294;BME280;4185;41.506;24.938;2023-10-31T02:41:35;93824.16;;;10.09;100.00
8294;BME280;4185;41.506;24.938;2023-10-31T02:44:02;93822.63;;;10.08;100.00
8294;BME280;4185;41.506;24.938;2023-10-31T02:46:29;93818.88;;;10.06;100.00
8294;BME280;4185;41.506;24.938;2023-10-31T02:48:56;93826.00;;;10.03;100.00
8294;BME280;4185;41.506;24.938;2023-10-31T02:51:23;93819.84;;;10.03;100.00
8294;BME280;4185;41.506;24.938;2023-10-31T02:53:50;93818.34;;;10.02;100.00
8294;BME280;4185;41.506;24.938;2023-10-31T02:56:18;93827.69;;;10.01;100.00
8294;BME280;4185;41.506;24.938;2023-10-31T02:58:45;93821.03;;;10.02;100.00
8294;BME280;4185;41.506;24.938;2023-10-31T03:01:12;93820.31;;;10.01;100.00
8294;BME280;4185;41.506;24.938;2023-10-31T03:03:39;93818.34;;;10.02;100.00
8294;BME280;4185;41.506;24.938;2023-10-31T03:06:06;93825.28;;;10.03;100.00
8294;BME280;4185;41.506;24.938;2023-10-31T03:08:33;93824.03;;;10.04;100.00
8294;BME280;4185;41.506;24.938;2023-10-31T03:11:00;93819.09;;;10.02;100.00
8294;BME280;4185;41.506;24.938;2023-10-31T03:13:28;93814.66;;;10.05;100.00
8294;BME280;4185;41.506;24.938;2023-10-31T03:15:55;93827.97;;;10.03;100.00
8294;BME280;4185;41.506;24.938;2023-10-31T03:18:22;93818.53;;;9.98;100.00
8294;BME280;4185;41.506;24.938;2023-10-31T03:20:48;93803.19;;;9.95;100.00
8294;BME280;4185;41.506;24.938;2023-10-31T03:23:15;93813.06;;;9.93;100.00
8294;BME280;4185;41.506;24.938;2023-10-31T03:25:42;93810.34;;;9.93;100.00
8294;BME280;4185;41.506;24.938;2023-10-31T03:28:18;93813.50;;;9.91;100.00
8294;BME280;4185;41.506;24.938;2023-10-31T03:30:47;93813.97;;;9.89;100.00
8294;BME280;4185;41.506;24.938;2023-10-31T03:33:14;93807.34;;;9.91;100.00
8294;BME280;4185;41.506;24.938;2023-10-31T03:35:41;93807.34;;;9.91;100.00
8294;BME280;4185;41.506;24.938;2023-10-31T03:38:07;93803.41;;;9.92;100.00
8294;BME280;4185;41.506;24.938;2023-10-31T03:40:34;93806.78;;;9.86;100.00
8294;BME280;4185;41.506;24.938;2023-10-31T03:43:01;93812.78;;;9.91;100.00
8294;BME280;4185;41.506;24.938;2023-10-31T03:45:29;93812.00;;;9.90;100.00
8294;BME280;4185;41.506;24.938;2023-10-31T03:47:57;93810.72;;;9.85;100.00
8294;BME280;4185;41.506;24.938;2023-10-31T03:50:24;93810.16;;;9.81;100.00
8294;BME280;4185;41.506;24.938;2023-10-31T03:52:52;93810.44;;;9.83;100.00
8294;BME280;4185;41.506;24.938;2023-10-31T03:55:19;93818.03;;;9.79;100.00
8294;BME280;4185;41.506;24.938;2023-10-31T03:57:45;93828.06;;;9.73;100.00
8294;BME280;4185;41.506;24.938;2023-10-31T04:00:13;93816.94;;;9.71;100.00
8294;BME280;4185;41.506;24.938;2023-10-31T04:02:40;93812.75;;;9.70;100.00
8294;BME280;4185;41.506;24.938;2023-10-31T04:05:08;93803.28;;;9.66;100.00
8294;BME280;4185;41.506;24.938;2023-10-31T04:07:35;93796.38;;;9.65;100.00
8294;BME280;4185;41.506;24.938;2023-10-31T04:10:02;93805.00;;;9.63;100.00
8294;BME280;4185;41.506;24.938;2023-10-31T04:12:29;93817.31;;;9.64;100.00
8294;BME280;4185;41.506;24.938;2023-10-31T04:14:56;93818.56;;;9.63;100.00
8294;BME280;4185;41.506;24.938;2023-10-31T04:17:22;93814.59;;;9.64;100.00
8294;BME280;4185;41.506;24.938;2023-10-31T04:19:49;93819.75;;;9.62;100.00
8294;BME280;4185;41.506;24.938;2023-10-31T04:22:17;93820.16;;;9.55;100.00
8294;BME280;4185;41.506;24.938;2023-10-31T04:24:44;93817.09;;;9.48;100.00
8294;BME280;4185;41.506;24.938;2023-10-31T04:27:11;93814.00;;;9.40;100.00
8294;BME280;4185;41.506;24.938;2023-10-31T04:29:38;93817.66;;;9.37;100.00
8294;BME280;4185;41.506;24.938;2023-10-31T04:32:05;93819.41;;;9.40;100.00
8294;BME280;4185;41.506;24.938;2023-10-31T04:34:32;93817.94;;;9.39;100.00
8294;BME280;4185;41.506;24.938;2023-10-31T04:36:59;93812.78;;;9.41;100.00
8294;BME280;4185;41.506;24.938;2023-10-31T04:39:27;93815.22;;;9.39;100.00
8294;BME280;4185;41.506;24.938;2023-10-31T04:41:54;93814.41;;;9.33;100.00
8294;BME280;4185;41.506;24.938;2023-10-31T04:44:20;93821.50;;;9.31;100.00
8294;BME280;4185;41.506;24.938;2023-10-31T04:46:47;93810.38;;;9.29;100.00
8294;BME280;4185;41.506;24.938;2023-10-31T04:49:14;93812.81;;;9.27;100.00
8294;BME280;4185;41.506;24.938;2023-10-31T04:51:42;93814.97;;;9.23;100.00
8294;BME280;4185;41.506;24.938;2023-10-31T04:54:09;93824.13;;;9.25;100.00
8294;BME280;4185;41.506;24.938;2023-10-31T04:56:37;93815.72;;;9.23;100.00
8294;BME280;4185;41.506;24.938;2023-10-31T04:59:04;93811.78;;;9.24;100.00
8294;BME280;4185;41.506;24.938;2023-10-31T05:01:31;93800.94;;;9.24;100.00
8294;BME280;4185;41.506;24.938;2023-10-31T05:03:57;93806.94;;;9.28;100.00
8294;BME280;4185;41.506;24.938;2023-10-31T05:06:24;93805.41;;;9.27;100.00
8294;BME280;4185;41.506;24.938;2023-10-31T05:08:51;93814.78;;;9.26;100.00
8294;BME280;4185;41.506;24.938;2023-10-31T05:11:18;93805.81;;;9.20;100.00
8294;BME280;4185;41.506;24.938;2023-10-31T05:13:46;93813.75;;;9.24;100.00
8294;BME280;4185;41.506;24.938;2023-10-31T05:16:13;93817.50;;;9.26;100.00
8294;BME280;4185;41.506;24.938;2023-10-31T05:18:40;93817.78;;;9.28;100.00
8294;BME280;4185;41.506;24.938;2023-10-31T05:21:07;93808.97;;;9.33;100.00
8294;BME280;4185;41.506;24.938;2023-10-31T05:23:33;93809.53;;;9.37;100.00
8294;BME280;4185;41.506;24.938;2023-10-31T05:26:00;93810.00;;;9.36;100.00
8294;BME280;4185;41.506;24.938;2023-10-31T05:28:27;93810.09;;;9.41;100.00
8294;BME280;4185;41.506;24.938;2023-10-31T05:30:55;93806.53;;;9.35;100.00
8294;BME280;4185;41.506;24.938;2023-10-31T05:33:22;93803.56;;;9.33;100.00
8294;BME280;4185;41.506;24.938;2023-10-31T05:35:49;93796.09;;;9.28;100.00
8294;BME280;4185;41.506;24.938;2023-10-31T05:38:16;93808.69;;;9.31;100.00
8294;BME280;4185;41.506;24.938;2023-10-31T05:40:43;93806.75;;;9.32;100.00
8294;BME280;4185;41.506;24.938;2023-10-31T05:43:10;93815.31;;;9.30;100.00
8294;BME280;4185;41.506;24.938;2023-10-31T05:45:37;93808.41;;;9.29;100.00
8294;BME280;4185;41.506;24.938;2023-10-31T05:48:05;93803.56;;;9.33;100.00
8294;BME280;4185;41.506;24.938;2023-10-31T05:50:32;93801.66;;;9.39;100.00
8294;BME280;4185;41.506;24.938;2023-10-31T05:52:59;93809.81;;;9.39;100.00
8294;BME280;4185;41.506;24.938;2023-10-31T05:55:26;93804.09;;;9.37;100.00
8294;BME280;4185;41.506;24.938;2023-10-31T05:57:52;93808.97;;;9.33;100.00
8294;BME280;4185;41.506;24.938;2023-10-31T06:00:19;93821.13;;;9.38;100.00
8294;BME280;4185;41.506;24.938;2023-10-31T06:02:46;93812.69;;;9.36;100.00
8294;BME280;4185;41.506;24.938;2023-10-31T06:05:14;93815.50;;;9.41;100.00
8294;BME280;4185;41.506;24.938;2023-10-31T06:07:41;93821.22;;;9.43;100.00
8294;BME280;4185;41.506;24.938;2023-10-31T06:10:09;93821.03;;;9.47;100.00
8294;BME280;4185;41.506;24.938;2023-10-31T06:12:36;93819.03;;;9.47;100.00
8294;BME280;4185;41.506;24.938;2023-10-31T06:15:03;93825.78;;;9.52;100.00
8294;BME280;4185;41.506;24.938;2023-10-31T06:17:29;93816.88;;;9.51;100.00
8294;BME280;4185;41.506;24.938;2023-10-31T06:19:58;93829.59;;;9.45;100.00
8294;BME280;4185;41.506;24.938;2023-10-31T06:22:27;93825.59;;;9.41;100.00
8294;BME280;4185;41.506;24.938;2023-10-31T06:24:53;93825.31;;;9.39;100.00
8294;BME280;4185;41.506;24.938;2023-10-31T06:27:20;93819.97;;;9.44;100.00
8294;BME280;4185;41.506;24.938;2023-10-31T06:29:47;93812.31;;;9.43;100.00
8294;BME280;4185;41.506;24.938;2023-10-31T06:32:14;93802.97;;;9.44;100.00
8294;BME280;4185;41.506;24.938;2023-10-31T06:34:40;93811.47;;;9.51;100.00
8294;BME280;4185;41.506;24.938;2023-10-31T06:37:07;93810.81;;;9.56;100.00
8294;BME280;4185;41.506;24.938;2023-10-31T06:39:35;93802.94;;;9.58;100.00
8294;BME280;4185;41.506;24.938;2023-10-31T06:42:02;93810.13;;;9.61;100.00
8294;BME280;4185;41.506;24.938;2023-10-31T06:44:29;93815.09;;;9.63;100.00
8294;BME280;4185;41.506;24.938;2023-10-31T06:46:56;93804.53;;;9.65;100.00
8294;BME280;4185;41.506;24.938;2023-10-31T06:49:23;93815.94;;;9.69;100.00
8294;BME280;4185;41.506;24.938;2023-10-31T06:51:49;93811.50;;;9.71;100.00
8294;BME280;4185;41.506;24.938;2023-10-31T06:54:16;93810.16;;;9.81;100.00
8294;BME280;4185;41.506;24.938;2023-10-31T06:56:44;93809.09;;;9.94;100.00
8294;BME280;4185;41.506;24.938;2023-10-31T06:59:11;93808.72;;;10.01;100.00
8294;BME280;4185;41.506;24.938;2023-10-31T07:01:38;93803.34;;;10.06;100.00
8294;BME280;4185;41.506;24.938;2023-10-31T07:04:05;93805.34;;;10.26;100.00
8294;BME280;4185;41.506;24.938;2023-10-31T07:06:32;93803.22;;;10.35;100.00
8294;BME280;4185;41.506;24.938;2023-10-31T07:08:59;93811.66;;;10.37;100.00
8294;BME280;4185;41.506;24.938;2023-10-31T07:11:30;93795.44;;;10.43;100.00
8294;BME280;4185;41.506;24.938;2023-10-31T07:14:00;93794.84;;;10.59;100.00
8294;BME280;4185;41.506;24.938;2023-10-31T07:16:28;93780.91;;;10.71;100.00
8294;BME280;4185;41.506;24.938;2023-10-31T07:18:55;93787.75;;;10.87;100.00
8294;BME280;4185;41.506;24.938;2023-10-31T07:21:21;93792.63;;;10.83;98.71
8294;BME280;4185;41.506;24.938;2023-10-31T07:23:48;93780.56;;;10.84;100.00
8294;BME280;4185;41.506;24.938;2023-10-31T07:26:16;93786.94;;;10.81;100.00
8294;BME280;4185;41.506;24.938;2023-10-31T07:28:42;93791.34;;;10.78;100.00
8294;BME280;4185;41.506;24.938;2023-10-31T07:31:11;93780.78;;;10.86;100.00
8294;BME280;4185;41.506;24.938;2023-10-31T07:33:37;93778.06;;;10.86;100.00
8294;BME280;4185;41.506;24.938;2023-10-31T07:36:05;93767.91;;;10.81;100.00
8294;BME280;4185;41.506;24.938;2023-10-31T07:38:32;93758.34;;;10.85;100.00
8294;BME280;4185;41.506;24.938;2023-10-31T07:41:00;93768.03;;;10.92;100.00
8294;BME280;4185;41.506;24.938;2023-10-31T07:43:27;93759.69;;;11.01;100.00
8294;BME280;4185;41.506;24.938;2023-10-31T07:45:54;93754.13;;;11.16;100.00
8294;BME280;4185;41.506;24.938;2023-10-31T07:48:22;93750.78;;;11.32;100.00
8294;BME280;4185;41.506;24.938;2023-10-31T07:50:48;93742.75;;;11.48;100.00
8294;BME280;4185;41.506;24.938;2023-10-31T07:53:15;93745.78;;;11.61;100.00
8294;BME280;4185;41.506;24.938;2023-10-31T07:55:42;93743.69;;;11.76;100.00
8294;BME280;4185;41.506;24.938;2023-10-31T07:58:09;93739.03;;;11.88;100.00
8294;BME280;4185;41.506;24.938;2023-10-31T08:00:36;93738.63;;;12.00;100.00
8294;BME280;4185;41.506;24.938;2023-10-31T08:03:04;93729.25;;;12.12;100.00
8294;BME280;4185;41.506;24.938;2023-10-31T08:05:32;93728.31;;;12.26;99.54
8294;BME280;4185;41.506;24.938;2023-10-31T08:07:59;93730.34;;;12.43;99.13
8294;BME280;4185;41.506;24.938;2023-10-31T08:10:26;93727.66;;;12.59;97.96
8294;BME280;4185;41.506;24.938;2023-10-31T08:12:53;93720.50;;;12.73;96.98
8294;BME280;4185;41.506;24.938;2023-10-31T08:15:19;93717.03;;;12.89;95.45
8294;BME280;4185;41.506;24.938;2023-10-31T08:17:46;93711.38;;;13.03;95.70
8294;BME280;4185;41.506;24.938;2023-10-31T08:20:13;93698.72;;;13.17;93.94
8294;BME280;4185;41.506;24.938;2023-10-31T08:22:41;93698.22;;;13.35;93.72
8294;BME280;4185;41.506;24.938;2023-10-31T08:25:09;93696.44;;;13.54;92.68
8294;BME280;4185;41.506;24.938;2023-10-31T08:27:35;93689.94;;;13.74;92.13
8294;BME280;4185;41.506;24.938;2023-10-31T08:30:03;93684.19;;;13.88;91.08
8294;BME280;4185;41.506;24.938;2023-10-31T08:32:29;93679.16;;;14.03;90.48
8294;BME280;4185;41.506;24.938;2023-10-31T08:34:56;93670.88;;;14.20;90.15
8294;BME280;4185;41.506;24.938;2023-10-31T08:37:23;93663.84;;;14.41;89.09
8294;BME280;4185;41.506;24.938;2023-10-31T08:39:52;93666.50;;;14.57;87.51
8294;BME280;4185;41.506;24.938;2023-10-31T08:42:18;93661.66;;;14.75;87.53
8294;BME280;4185;41.506;24.938;2023-10-31T08:44:45;93655.56;;;14.87;86.77
8294;BME280;4185;41.506;24.938;2023-10-31T08:47:12;93647.97;;;15.04;85.46
8294;BME280;4185;41.506;24.938;2023-10-31T08:49:39;93647.38;;;15.17;84.49
8294;BME280;4185;41.506;24.938;2023-10-31T08:52:06;93648.41;;;15.38;83.20
8294;BME280;4185;41.506;24.938;2023-10-31T08:54:33;93633.84;;;15.54;80.47
8294;BME280;4185;41.506;24.938;2023-10-31T08:57:01;93641.13;;;15.70;79.55
8294;BME280;4185;41.506;24.938;2023-10-31T08:59:28;93633.94;;;15.91;77.21
8294;BME280;4185;41.506;24.938;2023-10-31T09:01:54;93630.25;;;16.07;75.56
8294;BME280;4185;41.506;24.938;2023-10-31T09:04:21;93628.03;;;16.24;75.32
8294;BME280;4185;41.506;24.938;2023-10-31T09:06:48;93620.84;;;16.40;73.83
8294;BME280;4185;41.506;24.938;2023-10-31T09:09:15;93632.34;;;16.57;72.46
8294;BME280;4185;41.506;24.938;2023-10-31T09:11:42;93619.34;;;16.76;70.17
8294;BME280;4185;41.506;24.938;2023-10-31T09:14:10;93616.22;;;16.98;68.94
8294;BME280;4185;41.506;24.938;2023-10-31T09:16:37;93609.19;;;17.16;67.53
8294;BME280;4185;41.506;24.938;2023-10-31T09:19:04;93604.38;;;17.35;65.83
8294;BME280;4185;41.506;24.938;2023-10-31T09:21:31;93596.47;;;17.57;63.90
8294;BME280;4185;41.506;24.938;2023-10-31T09:23:58;93597.22;;;17.84;62.63
8294;BME280;4185;41.506;24.938;2023-10-31T09:26:25;93593.59;;;18.02;61.95
8294;BME280;4185;41.506;24.938;2023-10-31T09:28:52;93590.19;;;18.22;62.05
8294;BME280;4185;41.506;24.938;2023-10-31T09:31:20;93584.47;;;18.33;61.22
8294;BME280;4185;41.506;24.938;2023-10-31T09:33:47;93577.66;;;18.47;60.24
8294;BME280;4185;41.506;24.938;2023-10-31T09:36:13;93571.56;;;18.62;56.73
8294;BME280;4185;41.506;24.938;2023-10-31T09:38:40;93556.69;;;18.78;55.91
8294;BME280;4185;41.506;24.938;2023-10-31T09:41:07;93561.31;;;19.03;55.41
8294;BME280;4185;41.506;24.938;2023-10-31T09:43:34;93553.34;;;19.20;53.56
8294;BME280;4185;41.506;24.938;2023-10-31T09:46:02;93550.25;;;19.45;48.01
8294;BME280;4185;41.506;24.938;2023-10-31T09:48:31;93556.06;;;19.69;46.61
8294;BME280;4185;41.506;24.938;2023-10-31T09:50:58;93553.75;;;19.81;49.31
8294;BME280;4185;41.506;24.938;2023-10-31T09:53:25;93542.41;;;19.92;49.08
8294;BME280;4185;41.506;24.938;2023-10-31T09:55:53;93543.03;;;20.05;47.76
8294;BME280;4185;41.506;24.938;2023-10-31T09:58:21;93534.47;;;20.24;46.96
8294;BME280;4185;41.506;24.938;2023-10-31T10:00:48;93531.75;;;20.39;45.17
8294;BME280;4185;41.506;24.938;2023-10-31T10:03:16;93519.44;;;20.55;42.05
8294;BME280;4185;41.506;24.938;2023-10-31T10:05:45;93520.94;;;20.79;41.74
8294;BME280;4185;41.506;24.938;2023-10-31T10:08:14;93518.97;;;21.02;39.02
8294;BME280;4185;41.506;24.938;2023-10-31T10:10:41;93503.69;;;21.23;37.64
8294;BME280;4185;41.506;24.938;2023-10-31T10:13:08;93504.38;;;21.46;38.17
8294;BME280;4185;41.506;24.938;2023-10-31T10:15:43;93501.41;;;21.59;35.76
8294;BME280;4185;41.506;24.938;2023-10-31T10:18:10;93493.06;;;21.74;36.09
8294;BME280;4185;41.506;24.938;2023-10-31T10:20:55;93483.63;;;21.93;33.84
8294;BME280;4185;41.506;24.938;2023-10-31T10:23:23;93480.97;;;22.10;36.04
8294;BME280;4185;41.506;24.938;2023-10-31T10:25:50;93489.94;;;22.18;30.77
8294;BME280;4185;41.506;24.938;2023-10-31T10:28:17;93478.78;;;22.33;32.60
8294;BME280;4185;41.506;24.938;2023-10-31T10:30:45;93480.75;;;22.47;28.75
8294;BME280;4185;41.506;24.938;2023-10-31T10:33:12;93465.75;;;22.58;28.78
8294;BME280;4185;41.506;24.938;2023-10-31T10:35:39;93462.16;;;22.72;29.38
8294;BME280;4185;41.506;24.938;2023-10-31T10:38:10;93464.06;;;22.87;27.83
8294;BME280;4185;41.506;24.938;2023-10-31T10:40:40;93453.75;;;23.05;29.42
8294;BME280;4185;41.506;24.938;2023-10-31T10:43:12;93461.34;;;23.21;28.43
8294;BME280;4185;41.506;24.938;2023-10-31T10:45:42;93454.22;;;23.35;31.99
8294;BME280;4185;41.506;24.938;2023-10-31T10:48:11;93458.88;;;23.50;31.09
8294;BME280;4185;41.506;24.938;2023-10-31T10:50:41;93447.38;;;23.53;28.30
8294;BME280;4185;41.506;24.938;2023-10-31T10:53:16;93447.53;;;23.72;27.91
8294;BME280;4185;41.506;24.938;2023-10-31T10:55:46;93444.88;;;23.91;27.49
8294;BME280;4185;41.506;24.938;2023-10-31T10:58:22;93434.53;;;24.09;28.19
8294;BME280;4185;41.506;24.938;2023-10-31T11:00:53;93448.81;;;24.32;28.61
8294;BME280;4185;41.506;24.938;2023-10-31T11:03:22;93447.00;;;24.44;27.23
8294;BME280;4185;41.506;24.938;2023-10-31T11:05:51;93443.69;;;24.55;26.88
8294;BME280;4185;41.506;24.938;2023-10-31T11:08:20;93431.63;;;24.70;28.16
8294;BME280;4185;41.506;24.938;2023-10-31T11:10:48;93432.03;;;24.93;28.10
8294;BME280;4185;41.506;24.938;2023-10-31T11:13:15;93433.91;;;25.00;27.49
8294;BME280;4185;41.506;24.938;2023-10-31T11:15:43;93440.50;;;24.95;24.82
8294;BME280;4185;41.506;24.938;2023-10-31T11:18:10;93423.84;;;25.04;24.91
8294;BME280;4185;41.506;24.938;2023-10-31T11:20:38;93413.19;;;25.10;25.62
8294;BME280;4185;41.506;24.938;2023-10-31T11:23:06;93415.09;;;25.17;25.64
8294;BME280;4185;41.506;24.938;2023-10-31T11:25:42;93419.66;;;25.32;25.20
8294;BME280;4185;41.506;24.938;2023-10-31T11:28:13;93414.88;;;25.52;26.38
8294;BME280;4185;41.506;24.938;2023-10-31T11:30:41;93405.34;;;25.74;26.27
8294;BME280;4185;41.506;24.938;2023-10-31T11:33:11;93408.28;;;25.85;24.55
8294;BME280;4185;41.506;24.938;2023-10-31T11:35:40;93410.31;;;25.94;25.05
8294;BME280;4185;41.506;24.938;2023-10-31T11:38:08;93410.59;;;25.98;24.91
8294;BME280;4185;41.506;24.938;2023-10-31T11:40:59;93403.28;;;26.12;25.14
8294;BME280;4185;41.506;24.938;2023-10-31T11:43:36;93418.78;;;26.15;24.21
8294;BME280;4185;41.506;24.938;2023-10-31T11:46:03;93410.03;;;26.09;23.80
8294;BME280;4185;41.506;24.938;2023-10-31T11:48:45;93404.47;;;26.09;24.80
8294;BME280;4185;41.506;24.938;2023-10-31T11:51:13;93407.19;;;26.28;24.67
8294;BME280;4185;41.506;24.938;2023-10-31T11:53:39;93390.97;;;26.56;25.32
8294;BME280;4185;41.506;24.938;2023-10-31T11:56:09;93398.16;;;26.59;24.75
8294;BME280;4185;41.506;24.938;2023-10-31T11:58:36;93397.00;;;26.92;25.09
8294;BME280;4185;41.506;24.938;2023-10-31T12:01:05;93403.75;;;26.89;24.26
8294;BME280;4185;41.506;24.938;2023-10-31T12:03:36;93393.59;;;26.94;24.68
8294;BME280;4185;41.506;24.938;2023-10-31T12:06:04;93385.53;;;27.19;24.88
8294;BME280;4185;41.506;24.938;2023-10-31T12:08:33;93381.75;;;27.35;25.02
8294;BME280;4185;41.506;24.938;2023-10-31T12:11:05;93377.19;;;27.40;24.47
8294;BME280;4185;41.506;24.938;2023-10-31T12:13:34;93376.44;;;27.18;24.85
8294;BME280;4185;41.506;24.938;2023-10-31T12:16:02;93388.28;;;27.28;24.51
8294;BME280;4185;41.506;24.938;2023-10-31T12:18:29;93374.00;;;27.55;24.03
8294;BME280;4185;41.506;24.938;2023-10-31T12:20:56;93372.41;;;27.31;24.94
8294;BME280;4185;41.506;24.938;2023-10-31T12:23:23;93373.69;;;27.72;25.44
8294;BME280;4185;41.506;24.938;2023-10-31T12:25:50;93374.72;;;27.88;24.79
8294;BME280;4185;41.506;24.938;2023-10-31T12:28:17;93364.78;;;27.85;25.30
8294;BME280;4185;41.506;24.938;2023-10-31T12:30:46;93371.63;;;27.94;26.03
8294;BME280;4185;41.506;24.938;2023-10-31T12:33:14;93363.41;;;27.86;26.02
8294;BME280;4185;41.506;24.938;2023-10-31T12:35:41;93368.31;;;27.65;25.18
8294;BME280;4185;41.506;24.938;2023-10-31T12:38:10;93375.06;;;27.29;25.90
8294;BME280;4185;41.506;24.938;2023-10-31T12:40:38;93368.66;;;27.17;25.84
8294;BME280;4185;41.506;24.938;2023-10-31T12:43:06;93359.75;;;27.09;26.10
8294;BME280;4185;41.506;24.938;2023-10-31T12:45:33;93344.63;;;27.12;26.67
8294;BME280;4185;41.506;24.938;2023-10-31T12:48:02;93351.13;;;27.26;25.88
8294;BME280;4185;41.506;24.938;2023-10-31T12:50:30;93336.31;;;27.23;25.45
8294;BME280;4185;41.506;24.938;2023-10-31T12:52:57;93337.03;;;27.03;25.04
8294;BME280;4185;41.506;24.938;2023-10-31T12:55:26;93334.13;;;26.80;25.62
8294;BME280;4185;41.506;24.938;2023-10-31T12:57:55;93331.75;;;27.07;25.18
8294;BME280;4185;41.506;24.938;2023-10-31T13:00:22;93336.13;;;27.10;25.55
8294;BME280;4185;41.506;24.938;2023-10-31T13:03:00;93326.84;;;27.38;25.48
8294;BME280;4185;41.506;24.938;2023-10-31T13:05:29;93331.44;;;27.66;25.40
8294;BME280;4185;41.506;24.938;2023-10-31T13:07:57;93330.34;;;27.92;24.88
8294;BME280;4185;41.506;24.938;2023-10-31T13:10:26;93329.03;;;28.05;24.88
8294;BME280;4185;41.506;24.938;2023-10-31T13:12:54;93321.31;;;27.82;25.02